Time;durP1;ratioP1;P1;durP2;ratioP2;P2;SDS_P1;SDS_P2;PMS_P1;PMS_P2;Temp;Humidity;BMP_temperature;BMP_pressure;BME280_temperature;BME280_humidity;BME280_pressure;Samples;Min_cycle;Max_cycle;Signal;HPM_P1;HPM_P2
2021/09/02 00:02:21;;;;;;;;;;;13.70;94.50;;;14.01;81.38;101734.63;4989072;28;20062;-68
2021/09/02 00:04:48;;;;;;;;;;;13.70;94.50;;;13.97;81.56;101730.53;4988547;28;19929;-68
2021/09/02 00:07:15;;;;;;;;;;;13.70;94.60;;;13.96;81.48;101728.00;4989672;28;19936;-68
2021/09/02 00:09:42;;;;;;;;;;;13.70;94.50;;;13.95;81.77;101729.84;4989374;28;20019;-68
2021/09/02 00:12:09;;;;;;;;;;;13.70;94.50;;;13.93;81.83;101729.19;4989687;28;19968;-68
2021/09/02 00:14:38;;;;;;;;;;;13.70;94.60;;;13.88;81.82;101729.72;4988264;28;20381;-68
2021/09/02 00:17:06;;;;;;;;;;;13.60;94.50;;;13.83;81.60;101726.66;4992831;28;20048;-68
2021/09/02 00:19:33;;;;;;;;;;;13.60;94.30;;;13.84;81.57;101724.75;4991800;28;20373;-68
2021/09/02 00:22:03;;;;;;;;;;;13.60;94.40;;;13.83;81.48;101726.66;4993670;28;19929;-68
2021/09/02 00:24:30;;;;;;;;;;;13.60;94.40;;;13.82;81.61;101721.34;4992219;28;19941;-68
2021/09/02 00:26:57;;;;;;;;;;;13.60;94.40;;;13.84;81.30;101724.75;4974228;28;19925;-68
2021/09/02 00:29:24;;;;;;;;;;;13.50;94.40;;;13.81;81.21;101719.66;4990450;28;19933;-68
2021/09/02 00:31:53;;;;;;;;;;;13.50;94.50;;;13.76;81.23;101722.91;4989958;28;19957;-68
2021/09/02 00:34:20;;;;;;;;;;;13.50;94.50;;;13.72;81.66;101720.72;4988937;28;19973;-68
2021/09/02 00:36:47;;;;;;;;;;;13.50;94.70;;;13.66;81.63;101723.09;4989331;28;20012;-68
2021/09/02 00:39:14;;;;;;;;;;;13.40;94.40;;;13.73;81.46;101711.44;4989256;28;19936;-68
2021/09/02 00:41:41;;;;;;;;;;;13.40;94.40;;;13.66;81.32;101717.63;5025892;23;19929;-66
2021/09/02 00:44:10;;;;;;;;;;;13.40;94.50;;;13.65;81.68;101718.69;5023856;28;20208;-66
2021/09/02 00:46:37;;;;;;;;;;;13.40;94.50;;;13.64;81.44;101725.16;5031884;28;19928;-66
2021/09/02 00:49:06;;;;;;;;;;;13.40;94.30;;;13.62;81.46;101727.22;5048234;28;19937;-66
2021/09/02 00:51:33;;;;;;;;;;;13.40;94.30;;;13.62;81.32;101726.38;5048299;28;20019;-66
2021/09/02 00:54:00;;;;;;;;;;;13.40;94.50;;;13.59;81.54;101715.78;5030017;28;19937;-66
2021/09/02 00:56:28;;;;;;;;;;;13.30;94.50;;;13.62;81.05;101710.81;5028185;28;19928;-66
2021/09/02 00:58:55;;;;;;;;;;;13.30;94.20;;;13.58;81.03;101720.41;5028160;28;19983;-66
2021/09/02 01:01:22;;;;;;;;;;;13.30;94.30;;;13.56;81.42;101719.72;5028084;28;20028;-66
2021/09/02 01:03:50;;;;;;;;;;;13.30;94.50;;;13.55;80.87;101720.75;5025165;28;19929;-66
2021/09/02 01:06:18;;;;;;;;;;;13.20;94.30;;;13.54;80.92;101719.06;5027618;28;19972;-66
2021/09/02 01:08:46;;;;;;;;;;;13.20;94.40;;;13.50;80.97;101720.44;5027937;28;19961;-66
2021/09/02 01:11:14;;;;;;;;;;;13.20;94.50;;;13.45;81.18;101714.63;5027721;28;19964;-66
2021/09/02 01:13:41;;;;;;;;;;;13.10;94.50;;;13.43;81.22;101711.22;5026657;28;19964;-66
2021/09/02 01:16:08;;;;;;;;;;;13.20;94.40;;;13.43;81.00;101711.22;5027435;28;19929;-66
2021/09/02 01:18:35;;;;;;;;;;;13.20;94.30;;;13.44;80.98;101713.78;5027676;28;20024;-66
2021/09/02 01:21:02;;;;;;;;;;;13.10;94.40;;;13.40;80.87;101717.00;5027890;28;19940;-66
2021/09/02 01:23:35;;;;;;;;;;;13.10;94.50;;;13.42;80.86;101714.97;5024902;28;20021;-66
2021/09/02 01:26:02;;;;;;;;;;;13.10;94.40;;;13.38;80.76;101708.97;5025851;28;20011;-66
2021/09/02 01:28:30;;;;;;;;;;;13.10;94.50;;;13.34;81.06;101706.78;5026073;28;19968;-66
2021/09/02 01:30:58;;;;;;;;;;;13.10;94.50;;;13.32;81.05;101714.31;5027522;28;20266;-66
2021/09/02 01:33:25;;;;;;;;;;;13.00;94.40;;;13.31;80.67;101716.19;5032032;28;20376;-66
2021/09/02 01:35:52;;;;;;;;;;;13.00;94.30;;;13.32;80.72;101722.50;5047254;28;20043;-66
2021/09/02 01:38:19;;;;;;;;;;;13.00;94.40;;;13.30;80.69;101723.53;5047631;28;19928;-66
2021/09/02 01:40:48;;;;;;;;;;;13.00;94.50;;;13.25;81.10;101714.97;5047136;28;19968;-66
2021/09/02 01:43:17;;;;;;;;;;;12.90;94.60;;;13.24;80.78;101713.25;5033776;28;19929;-66
2021/09/02 01:45:45;;;;;;;;;;;13.00;94.60;;;13.25;80.71;101709.50;5011339;28;19960;-66
2021/09/02 01:48:12;;;;;;;;;;;12.90;94.50;;;13.25;80.92;101709.50;5010094;28;20000;-66
2021/09/02 01:50:41;;;;;;;;;;;12.90;94.60;;;13.19;80.79;101710.16;5010153;28;19933;-66
2021/09/02 01:53:10;;;;;;;;;;;12.90;94.70;;;13.17;80.89;101709.50;5017050;28;19952;-66
2021/09/02 01:55:37;;;;;;;;;;;12.90;94.70;;;13.16;81.17;101707.81;5029513;28;19929;-66
2021/09/02 01:58:06;;;;;;;;;;;12.90;94.70;;;13.14;81.12;101701.66;5028303;28;19935;-66
2021/09/02 02:00:34;;;;;;;;;;;12.90;94.70;;;13.12;80.77;101711.91;5031320;28;20002;-66
2021/09/02 02:03:01;;;;;;;;;;;12.90;94.70;;;13.15;80.95;101708.81;5028728;28;19933;-66
2021/09/02 02:05:29;;;;;;;;;;;12.80;94.40;;;13.15;80.89;101703.34;5029051;28;20031;-66
2021/09/02 02:07:56;;;;;;;;;;;12.80;94.50;;;13.09;80.99;101704.03;5030978;28;19929;-66
2021/09/02 02:10:26;;;;;;;;;;;12.80;94.60;;;13.09;80.51;101709.50;5031297;28;20035;-66
2021/09/02 02:12:54;;;;;;;;;;;12.80;94.60;;;13.09;80.64;101709.50;5029101;28;20412;-66
2021/09/02 02:15:23;;;;;;;;;;;12.70;94.60;;;13.05;81.08;101713.63;5030813;28;19939;-66
2021/09/02 02:17:50;;;;;;;;;;;12.70;94.60;;;13.06;80.48;101704.38;5030958;28;20087;-66
2021/09/02 02:20:17;;;;;;;;;;;12.70;94.50;;;13.07;80.46;101703.38;5029522;28;20397;-66
2021/09/02 02:22:45;;;;;;;;;;;12.70;94.50;;;13.04;80.80;101700.97;5028141;28;19975;-66
2021/09/02 02:25:14;;;;;;;;;;;12.70;94.60;;;13.03;80.35;101699.28;5030166;28;19991;-66
2021/09/02 02:27:41;;;;;;;;;;;12.70;94.60;;;12.99;80.37;101698.75;5030632;28;19929;-66
2021/09/02 02:30:11;;;;;;;;;;;12.70;94.60;;;13.00;80.25;101705.06;5030165;28;19964;-66
2021/09/02 02:32:39;;;;;;;;;;;12.60;94.50;;;12.98;80.18;101701.66;5028700;28;19972;-66
2021/09/02 02:35:07;;;;;;;;;;;12.60;94.40;;;12.96;80.34;101696.34;5049892;28;20061;-66
2021/09/02 02:37:34;;;;;;;;;;;12.60;94.60;;;12.92;80.57;101697.72;5050462;28;20018;-66
2021/09/02 02:40:02;;;;;;;;;;;12.60;94.60;;;12.90;80.77;101694.31;5050201;28;19979;-66
2021/09/02 02:42:29;;;;;;;;;;;12.60;94.50;;;12.88;80.94;101694.47;5044773;28;20641;-66
2021/09/02 02:44:56;;;;;;;;;;;12.60;94.60;;;12.89;80.66;101688.00;5045038;28;20001;-66
2021/09/02 02:47:23;;;;;;;;;;;12.60;94.70;;;12.88;80.42;101697.22;5050223;28;19968;-66
2021/09/02 02:49:52;;;;;;;;;;;12.60;94.60;;;12.84;80.42;101690.38;5050367;28;19942;-66
2021/09/02 02:52:19;;;;;;;;;;;12.60;94.60;;;12.85;80.41;101697.56;5045746;28;20495;-66
2021/09/02 02:54:46;;;;;;;;;;;12.60;94.60;;;12.81;80.70;101690.75;5047361;28;20031;-66
2021/09/02 02:57:13;;;;;;;;;;;12.50;94.70;;;12.79;80.64;101691.91;5050140;28;20017;-66
2021/09/02 02:59:40;;;;;;;;;;;12.50;94.80;;;12.79;81.03;101687.31;5050253;28;19990;-66
2021/09/02 03:02:07;;;;;;;;;;;12.50;94.90;;;12.78;80.71;101688.34;5048589;28;19935;-66
2021/09/02 03:04:34;;;;;;;;;;;12.50;94.80;;;12.79;80.69;101692.75;5044484;28;19974;-65
2021/09/02 03:07:03;;;;;;;;;;;12.50;94.70;;;12.78;80.65;101692.97;5049800;28;19939;-66
2021/09/02 03:09:30;;;;;;;;;;;12.50;95.00;;;12.73;81.05;101690.72;5050076;28;19974;-66
2021/09/02 03:11:57;;;;;;;;;;;12.40;94.60;;;12.73;80.81;101690.72;5049867;28;19974;-66
2021/09/02 03:14:24;;;;;;;;;;;12.40;94.80;;;12.74;80.87;101694.28;5030601;28;19932;-66
2021/09/02 03:16:51;;;;;;;;;;;12.40;95.00;;;12.73;80.79;101690.72;5029628;28;20315;-66
2021/09/02 03:19:19;;;;;;;;;;;12.40;95.00;;;12.70;80.64;101689.19;5029977;28;19983;-66
2021/09/02 03:21:46;;;;;;;;;;;12.40;94.60;;;12.66;80.78;101689.69;5029978;28;20471;-66
2021/09/02 03:24:14;;;;;;;;;;;12.40;94.60;;;12.67;80.41;101683.22;5042116;28;20750;-66
2021/09/02 03:26:41;;;;;;;;;;;12.40;94.70;;;12.65;80.91;101680.66;5049645;28;19972;-66
2021/09/02 03:29:08;;;;;;;;;;;12.40;94.80;;;12.64;80.58;101672.63;5049519;28;20478;-66
2021/09/02 03:31:36;;;;;;;;;;;12.40;94.80;;;12.63;80.77;101677.22;5048274;28;20022;-65
2021/09/02 03:34:03;;;;;;;;;;;12.30;94.60;;;12.63;80.35;101679.13;5044381;28;19932;-66
2021/09/02 03:36:30;;;;;;;;;;;12.30;94.70;;;12.60;80.62;101676.72;5049221;28;19925;-66
2021/09/02 03:38:57;;;;;;;;;;;12.30;94.70;;;12.57;80.91;101682.53;5034690;28;20357;-66
2021/09/02 03:41:25;;;;;;;;;;;12.30;94.80;;;12.56;80.91;101680.81;5029462;28;19960;-66
2021/09/02 03:43:52;;;;;;;;;;;12.30;94.80;;;12.54;80.85;101677.41;5018677;28;19934;-66
2021/09/02 03:46:19;;;;;;;;;;;12.20;94.50;;;12.52;81.17;101685.75;5010699;28;19925;-66
2021/09/02 03:48:46;;;;;;;;;;;12.30;94.90;;;12.54;80.83;101682.84;5029349;28;20011;-66
2021/09/02 03:51:14;;;;;;;;;;;12.30;94.80;;;12.56;80.40;101683.53;5029374;28;19976;-66
2021/09/02 03:53:41;;;;;;;;;;;12.30;94.70;;;12.51;80.67;101684.91;5026783;28;20451;-66
2021/09/02 03:56:08;;;;;;;;;;;12.20;94.70;;;12.51;80.39;101686.78;5027403;28;20413;-66
2021/09/02 03:58:36;;;;;;;;;;;12.20;94.50;;;12.45;80.49;101682.84;5029466;28;19952;-66
2021/09/02 04:01:05;;;;;;;;;;;12.20;94.80;;;12.47;80.42;101678.09;5029182;28;20032;-66
2021/09/02 04:03:32;;;;;;;;;;;12.20;94.80;;;12.46;80.67;101684.53;5025722;28;19933;-66
2021/09/02 04:05:59;;;;;;;;;;;12.20;94.70;;;12.46;80.18;101681.81;5027909;28;19978;-65
2021/09/02 04:08:26;;;;;;;;;;;12.20;94.70;;;12.43;80.66;101682.19;5029041;28;19935;-66
2021/09/02 04:10:53;;;;;;;;;;;12.10;94.90;;;12.42;80.69;101680.44;5028586;28;19961;-66
2021/09/02 04:13:20;;;;;;;;;;;12.10;95.00;;;12.43;80.60;101686.75;5034323;28;19929;-66
2021/09/02 04:15:49;;;;;;;;;;;12.10;94.70;;;12.39;80.25;101688.13;5046724;28;20019;-66
2021/09/02 04:18:16;;;;;;;;;;;12.10;94.70;;;12.40;80.79;101684.38;5048848;28;19929;-66
2021/09/02 04:20:44;;;;;;;;;;;12.10;94.80;;;12.36;80.80;101689.31;5048779;28;20388;-68
2021/09/02 04:23:11;;;;;;;;;;;12.10;94.80;;;12.35;80.45;101684.88;5043192;28;20019;-68
2021/09/02 04:25:38;;;;;;;;;;;12.10;94.80;;;12.36;80.44;101681.13;5048411;28;19933;-68
2021/09/02 04:28:05;;;;;;;;;;;12.10;94.60;;;12.36;80.27;101686.59;5048877;28;19928;-68
2021/09/02 04:30:33;;;;;;;;;;;12.10;94.70;;;12.42;80.13;101679.59;5048557;28;19936;-68
2021/09/02 04:33:01;;;;;;;;;;;12.10;94.60;;;12.40;79.98;101679.75;5038187;28;19963;-68
2021/09/02 04:35:29;;;;;;;;;;;12.10;94.60;;;12.35;80.32;101678.56;5028350;28;19932;-68
2021/09/02 04:37:56;;;;;;;;;;;12.00;94.90;;;12.30;80.52;101676.34;5028363;28;20029;-68
2021/09/02 04:40:23;;;;;;;;;;;12.10;95.00;;;12.29;80.73;101671.91;5028462;28;19990;-68
2021/09/02 04:42:50;;;;;;;;;;;12.00;94.70;;;12.29;80.41;101680.09;5025640;28;19925;-68
2021/09/02 04:45:18;;;;;;;;;;;12.00;94.70;;;12.26;80.61;101669.50;5006826;28;19984;-68
2021/09/02 04:47:45;;;;;;;;;;;12.00;94.70;;;12.21;80.70;101669.16;5008414;28;19930;-68
2021/09/02 04:50:13;;;;;;;;;;;12.00;94.80;;;12.25;80.96;101670.53;5013846;28;20467;-67
2021/09/02 04:52:41;;;;;;;;;;;12.00;94.70;;;12.26;80.59;101672.22;5025966;28;19966;-67
2021/09/02 04:55:10;;;;;;;;;;;12.00;94.70;;;12.24;80.75;101674.25;5047219;28;19997;-68
2021/09/02 04:57:37;;;;;;;;;;;12.00;94.70;;;12.28;80.54;101672.91;5048195;28;19929;-67
2021/09/02 05:00:06;;;;;;;;;;;12.00;94.60;;;12.26;80.45;101669.50;5047630;28;19967;-67
2021/09/02 05:02:33;;;;;;;;;;;12.00;94.60;;;12.24;80.74;101669.69;5014070;28;19933;-67
2021/09/02 05:05:01;;;;;;;;;;;12.10;94.70;;;12.24;80.86;101671.53;5007805;28;20448;-67
2021/09/02 05:07:29;;;;;;;;;;;12.10;94.70;;;12.24;80.84;101671.53;5008347;28;20016;-67
2021/09/02 05:09:56;;;;;;;;;;;12.10;94.40;;;12.26;80.66;101661.31;5008079;28;19933;-68
2021/09/02 05:12:23;;;;;;;;;;;12.10;94.50;;;12.25;81.27;101673.25;5007784;28;20298;-67
2021/09/02 05:14:50;;;;;;;;;;;12.10;94.60;;;12.22;81.03;101669.00;5025554;28;20294;-67
2021/09/02 05:17:17;;;;;;;;;;;12.20;94.50;;;12.24;80.97;101671.53;5027395;28;19929;-67
2021/09/02 05:19:44;;;;;;;;;;;12.20;94.30;;;12.27;81.18;101665.75;5027562;28;19936;-68
2021/09/02 05:22:11;;;;;;;;;;;12.20;94.60;;;12.27;81.18;101672.06;5026569;28;19952;-68
2021/09/02 05:24:40;;;;;;;;;;;12.30;94.60;;;12.28;81.91;101668.31;5043997;28;20543;-67
2021/09/02 05:27:07;;;;;;;;;;;12.30;94.50;;;12.27;82.03;101665.75;5047568;28;19929;-68
2021/09/02 05:29:35;;;;;;;;;;;12.40;94.50;;;12.28;82.07;101671.06;5047410;28;19943;-67
2021/09/02 05:32:02;;;;;;;;;;;12.40;94.40;;;12.27;82.10;101660.28;5047375;28;19932;-68
2021/09/02 05:34:29;;;;;;;;;;;12.50;94.50;;;12.31;82.35;101662.50;5025745;28;20384;-67
2021/09/02 05:36:56;;;;;;;;;;;12.50;94.50;;;12.35;82.83;101664.91;5027713;28;19929;-67
2021/09/02 05:39:23;;;;;;;;;;;12.60;94.50;;;12.40;82.80;101657.09;5027620;28;19968;-67
2021/09/02 05:41:52;;;;;;;;;;;12.60;94.50;;;12.39;82.65;101650.75;5027768;28;19979;-68
2021/09/02 05:44:19;;;;;;;;;;;12.70;94.60;;;12.43;83.18;101651.25;5012487;28;19929;-67
2021/09/02 05:46:46;;;;;;;;;;;12.80;94.80;;;12.48;83.28;101655.19;5007590;28;19926;-68
2021/09/02 05:49:13;;;;;;;;;;;12.80;94.60;;;12.51;83.57;101657.59;5007666;28;19929;-67
2021/09/02 05:51:41;;;;;;;;;;;12.90;94.80;;;12.53;84.05;101660.16;5007697;28;19937;-67
2021/09/02 05:54:08;;;;;;;;;;;12.90;94.90;;;12.58;84.23;101659.66;5021622;28;20026;-68
2021/09/02 05:56:35;;;;;;;;;;;13.00;94.90;;;12.61;84.17;101657.44;5027136;28;20538;-67
2021/09/02 05:59:04;;;;;;;;;;;13.10;95.00;;;12.62;84.78;101656.44;5026987;28;19968;-67
2021/09/02 06:01:31;;;;;;;;;;;13.20;94.90;;;12.66;84.96;101660.50;5027475;28;20031;-67
2021/09/02 06:04:00;;;;;;;;;;;13.20;94.90;;;12.70;85.32;101663.75;5024693;28;19991;-67
2021/09/02 06:06:27;;;;;;;;;;;13.30;94.90;;;12.73;85.14;101666.13;5022843;28;20320;-67
2021/09/02 06:08:54;;;;;;;;;;;13.30;94.90;;;12.77;85.45;101661.19;5024249;28;20028;-67
2021/09/02 06:11:21;;;;;;;;;;;13.40;94.80;;;12.80;85.74;101660.84;5007197;28;19937;-68
2021/09/02 06:13:48;;;;;;;;;;;13.50;94.80;;;12.83;85.40;101666.84;5013917;28;19936;-68
2021/09/02 06:16:16;;;;;;;;;;;13.50;94.60;;;12.86;85.73;101671.94;5013137;28;20051;-68
2021/09/02 06:18:44;;;;;;;;;;;13.60;94.70;;;12.89;85.84;101666.16;5027398;28;19929;-68
2021/09/02 06:21:11;;;;;;;;;;;13.70;94.70;;;12.94;86.57;101664.78;5014508;28;20439;-68
2021/09/02 06:23:38;;;;;;;;;;;13.70;94.70;;;12.99;86.22;101667.84;5024096;28;19951;-68
2021/09/02 06:26:05;;;;;;;;;;;13.80;94.80;;;13.03;86.52;101674.69;5024627;28;19933;-67
2021/09/02 06:28:32;;;;;;;;;;;13.80;94.80;;;13.06;86.47;101672.44;5026917;28;19932;-68
2021/09/02 06:30:59;;;;;;;;;;;13.90;94.90;;;13.10;87.11;101679.28;5021222;28;20556;-68
2021/09/02 06:33:27;;;;;;;;;;;14.00;94.90;;;13.14;87.34;101678.94;5010939;28;19929;-68
2021/09/02 06:35:55;;;;;;;;;;;14.10;94.70;;;13.18;87.77;101689.34;5010447;28;19933;-68
2021/09/02 06:38:22;;;;;;;;;;;14.20;94.40;;;13.23;87.87;101684.22;5030171;28;19972;-67
2021/09/02 06:40:49;;;;;;;;;;;14.30;94.50;;;13.28;88.12;101681.81;5045557;22;20521;-65
2021/09/02 06:43:16;;;;;;;;;;;14.40;94.30;;;13.38;88.86;101680.78;4987482;28;19958;-65
2021/09/02 06:45:43;;;;;;;;;;;14.50;95.10;;;13.42;88.94;101682.16;4972179;28;19936;-65
2021/09/02 06:48:11;;;;;;;;;;;14.60;94.90;;;13.46;90.54;101675.28;4984484;28;19930;-65
2021/09/02 06:50:39;;;;;;;;;;;14.70;95.10;;;13.49;90.24;101674.94;4976196;28;19930;-66
2021/09/02 06:53:06;;;;;;;;;;;14.80;94.60;;;13.56;89.49;101678.69;4970657;28;20467;-66
2021/09/02 06:55:34;;;;;;;;;;;14.90;94.20;;;13.63;89.59;101668.78;4989709;28;20009;-66
2021/09/02 06:58:01;;;;;;;;;;;14.90;94.20;;;13.67;91.04;101674.75;4990381;28;20403;-66
2021/09/02 07:00:28;;;;;;;;;;;15.00;94.20;;;13.68;91.03;101674.53;4975366;28;20464;-66
2021/09/02 07:02:55;;;;;;;;;;;15.10;94.10;;;13.77;91.25;101678.09;4973714;28;19985;-66
2021/09/02 07:05:23;;;;;;;;;;;15.20;94.10;;;13.83;91.50;101677.41;4973348;28;19937;-66
2021/09/02 07:07:53;;;;;;;;;;;15.40;93.80;;;13.89;91.57;101671.19;4979604;28;20025;-67
2021/09/02 07:10:21;;;;;;;;;;;15.50;93.90;;;13.98;92.00;101673.91;5012381;28;20447;-66
2021/09/02 07:12:48;;;;;;;;;;;15.60;93.60;;;14.05;92.01;101675.75;4998857;28;19988;-67
2021/09/02 07:15:16;;;;;;;;;;;15.70;93.60;;;14.11;92.50;101678.78;4994234;28;19953;-67
2021/09/02 07:17:43;;;;;;;;;;;15.80;93.60;;;14.17;92.48;101680.84;4995752;28;19933;-67
2021/09/02 07:20:12;;;;;;;;;;;15.90;93.00;;;14.24;92.69;101684.53;4993681;28;19930;-66
2021/09/02 07:22:39;;;;;;;;;;;16.10;93.20;;;14.31;93.26;101680.06;4993489;28;20496;-67
2021/09/02 07:25:09;;;;;;;;;;;16.10;93.20;;;14.39;93.28;101679.16;4994178;28;20055;-66
2021/09/02 07:27:36;;;;;;;;;;;16.30;93.30;;;14.46;93.96;101686.47;4994481;28;19932;-68
2021/09/02 07:30:04;;;;;;;;;;;16.40;93.40;;;14.54;93.77;101685.53;4990521;28;19984;-65
2021/09/02 07:32:31;;;;;;;;;;;16.50;93.10;;;14.64;94.39;101688.06;4983902;28;19937;-66
2021/09/02 07:34:59;;;;;;;;;;;16.70;93.10;;;14.71;94.44;101696.44;4972303;28;19930;-65
2021/09/02 07:37:26;;;;;;;;;;;16.80;92.70;;;14.77;93.86;101696.53;4974680;28;19957;-68
2021/09/02 07:39:53;;;;;;;;;;;16.90;92.20;;;14.83;94.08;101693.09;4981513;28;19934;-65
2021/09/02 07:42:21;;;;;;;;;;;17.00;92.20;;;14.90;93.91;101697.81;4971516;28;19930;-65
2021/09/02 07:44:48;;;;;;;;;;;17.00;91.90;;;14.95;93.64;101696.22;4988385;28;20714;-65
2021/09/02 07:47:16;;;;;;;;;;;17.10;91.30;;;15.01;94.07;101687.25;4984555;28;20008;-65
2021/09/02 07:49:43;;;;;;;;;;;17.30;91.50;;;15.11;93.85;101688.91;4984023;28;20274;-65
2021/09/02 07:52:11;;;;;;;;;;;17.40;90.40;;;15.14;92.74;101688.53;4980861;28;20679;-65
2021/09/02 07:54:38;;;;;;;;;;;17.40;89.90;;;15.19;93.00;101686.94;4979909;28;19972;-65
2021/09/02 07:57:05;;;;;;;;;;;17.40;90.50;;;15.26;93.46;101692.50;4960403;28;19952;-65
2021/09/02 07:59:34;;;;;;;;;;;17.50;90.70;;;15.35;93.71;101691.41;4968116;28;19940;-65
2021/09/02 08:02:01;;;;;;;;;;;17.60;90.70;;;15.45;94.51;101693.88;4981674;28;20043;-65
2021/09/02 08:04:28;;;;;;;;;;;17.80;90.90;;;15.52;95.14;101686.59;4966925;28;19926;-66
2021/09/02 08:06:55;;;;;;;;;;;17.90;90.80;;;15.58;93.59;101695.97;4977369;28;19977;-65
2021/09/02 08:09:22;;;;;;;;;;;17.90;89.70;;;15.59;93.15;101693.03;4984614;28;20121;-65
2021/09/02 08:11:49;;;;;;;;;;;18.00;89.20;;;15.63;92.53;101702.59;4977792;28;19929;-66
2021/09/02 08:14:16;;;;;;;;;;;18.00;88.80;;;15.67;92.38;101704.94;4974832;28;19934;-65
2021/09/02 08:16:45;;;;;;;;;;;18.00;88.80;;;15.69;93.09;101703.72;4981631;28;19926;-65
2021/09/02 08:19:12;;;;;;;;;;;18.10;88.80;;;15.76;93.00;101696.47;4984383;28;19926;-65
2021/09/02 08:21:39;;;;;;;;;;;18.20;89.30;;;15.79;92.47;101700.72;4988139;28;20006;-66
2021/09/02 08:24:06;;;;;;;;;;;18.30;88.60;;;15.83;92.21;101700.13;4986093;28;19937;-65
2021/09/02 08:26:34;;;;;;;;;;;18.30;88.20;;;15.89;91.60;101692.19;4987099;28;20617;-65
2021/09/02 08:29:02;;;;;;;;;;;18.40;87.60;;;15.92;91.60;101689.06;4985515;28;19930;-65
2021/09/02 08:31:30;;;;;;;;;;;18.40;88.10;;;15.99;91.75;101690.88;4987848;28;19930;-66
2021/09/02 08:33:59;;;;;;;;;;;18.40;88.30;;;16.11;93.55;101693.13;4970384;28;20325;-65
2021/09/02 08:36:26;;;;;;;;;;;18.50;88.80;;;16.20;93.21;101687.31;4987049;28;19934;-65
2021/09/02 08:38:54;;;;;;;;;;;18.50;88.90;;;16.16;91.26;101698.88;4986562;28;20293;-65
2021/09/02 08:41:21;;;;;;;;;;;18.40;87.60;;;16.15;91.85;101680.69;4987485;28;20457;-66
2021/09/02 08:43:49;;;;;;;;;;;18.30;88.80;;;16.20;91.94;101678.22;4977569;28;19930;-66
2021/09/02 08:46:17;;;;;;;;;;;18.30;89.20;;;16.22;91.03;101684.34;4967655;28;20398;-66
2021/09/02 08:48:45;;;;;;;;;;;18.30;88.80;;;16.21;90.64;101669.78;4980448;28;20041;-66
2021/09/02 08:51:14;;;;;;;;;;;18.30;88.50;;;16.26;90.52;101676.59;4967950;28;19937;-65
2021/09/02 08:53:42;;;;;;;;;;;18.30;88.40;;;16.27;90.63;101668.16;4986021;28;19929;-66
2021/09/02 08:56:09;;;;;;;;;;;18.30;88.40;;;16.34;90.90;101666.34;4985507;28;19984;-66
2021/09/02 08:58:36;;;;;;;;;;;18.40;88.80;;;16.36;90.46;101677.97;4983984;28;19987;-66
2021/09/02 09:01:05;;;;;;;;;;;18.40;87.90;;;16.37;90.00;101687.06;4986141;28;19980;-67
2021/09/02 09:03:34;;;;;;;;;;;18.30;88.20;;;16.46;90.82;101680.41;4987415;28;20406;-66
2021/09/02 09:06:06;;;;;;;;;;;18.40;88.80;;;16.54;91.28;101676.69;4987220;28;19930;-65
2021/09/02 09:08:37;;;;;;;;;;;18.50;89.20;;;16.61;91.47;101674.84;4983857;28;19984;-66
2021/09/02 09:11:17;;;;;;;;;;;18.60;89.50;;;16.62;90.53;101671.06;5014472;23;20020;-65
2021/09/02 09:13:45;;;;;;;;;;;18.60;88.40;;;16.65;90.25;101683.56;5046710;28;19964;-66
2021/09/02 09:16:13;;;;;;;;;;;18.60;88.10;;;16.67;89.54;101679.56;5046431;28;20010;-65
2021/09/02 09:18:45;;;;;;;;;;;18.60;88.00;;;16.64;89.09;101679.97;5048227;28;20040;-66
2021/09/02 09:21:14;;;;;;;;;;;18.60;87.60;;;16.59;88.58;101691.53;5026858;28;19949;-65
2021/09/02 09:23:53;;;;;;;;;;;18.50;87.20;;;16.61;88.99;101685.84;5008933;28;20306;-66
2021/09/02 09:26:20;;;;;;;;;;;18.50;88.20;;;16.67;89.20;101679.56;5026513;28;19990;-66
2021/09/02 09:28:47;;;;;;;;;;;18.60;88.20;;;16.70;89.17;101678.34;5052170;28;19960;-65
2021/09/02 09:31:28;;;;;;;;;;;18.60;88.00;;;16.74;89.92;101680.47;5066562;28;20145;-65
2021/09/02 09:33:56;;;;;;;;;;;18.70;88.60;;;16.74;88.90;101688.72;5047861;28;19951;-65
2021/09/02 09:36:24;;;;;;;;;;;18.70;87.60;;;16.75;88.39;101676.69;5042369;28;19955;-65
2021/09/02 09:39:01;;;;;;;;;;;18.70;87.50;;;16.81;89.38;101670.41;5039497;28;19964;-65
2021/09/02 09:41:36;;;;;;;;;;;18.70;88.10;;;16.85;88.62;101675.53;5046499;28;19936;-66
2021/09/02 09:44:20;;;;;;;;;;;18.80;87.60;;;16.81;88.78;101670.41;5026770;28;19936;-65
2021/09/02 09:47:14;;;;;;;;;;;18.80;87.70;;;16.85;89.45;101670.03;5026764;28;20730;-66
2021/09/02 09:49:46;;;;;;;;;;;18.80;87.40;;;16.90;88.38;101675.78;5044519;28;19936;-66
2021/09/02 09:52:28;;;;;;;;;;;18.90;87.10;;;16.98;91.42;101670.13;5042726;28;20347;-65
2021/09/02 09:55:04;;;;;;;;;;;18.90;88.90;;;17.04;88.64;101668.50;5027626;28;19933;-65
2021/09/02 09:57:33;;;;;;;;;;;19.00;87.80;;;17.03;88.61;101675.06;5031184;28;19929;-66
2021/09/02 10:00:02;;;;;;;;;;;19.00;87.40;;;17.00;87.82;101668.91;5046649;28;19961;-66
2021/09/02 10:02:39;;;;;;;;;;;19.00;86.40;;;17.05;88.14;101671.06;5040677;28;19929;-67
2021/09/02 10:05:09;;;;;;;;;;;19.00;86.80;;;17.07;88.24;101663.44;5031687;28;19933;-65
2021/09/02 10:07:37;;;;;;;;;;;19.10;86.80;;;17.10;87.96;101657.56;5035182;28;19932;-67
2021/09/02 10:10:09;;;;;;;;;;;19.20;86.30;;;17.14;88.39;101656.09;5055191;28;19970;-66
2021/09/02 10:12:37;;;;;;;;;;;19.20;86.80;;;17.17;88.13;101647.47;5060997;28;19988;-65
2021/09/02 10:15:06;;;;;;;;;;;19.20;86.70;;;17.24;87.80;101646.66;5035675;28;19928;-66
2021/09/02 10:17:34;;;;;;;;;;;19.20;86.50;;;17.20;87.30;101646.19;5043183;28;20700;-65
2021/09/02 10:20:02;;;;;;;;;;;19.20;85.40;;;17.19;85.96;101650.88;5072340;28;19951;-65
2021/09/02 10:22:30;;;;;;;;;;;19.20;85.20;;;17.23;86.09;101651.31;5061715;28;20400;-65
2021/09/02 10:24:57;;;;;;;;;;;19.30;85.00;;;17.30;86.43;101651.34;5031934;28;20028;-65
2021/09/02 10:27:38;;;;;;;;;;;19.30;85.00;;;17.30;85.45;101645.84;5034945;28;19963;-66
2021/09/02 10:30:26;;;;;;;;;;;19.30;84.60;;;17.32;85.57;101644.56;5051488;28;19964;-66
2021/09/02 10:32:54;;;;;;;;;;;19.40;84.60;;;17.37;86.72;101644.84;5043104;28;20365;-66
2021/09/02 10:35:33;;;;;;;;;;;19.40;85.70;;;17.37;85.39;101641.25;5030580;28;19935;-66
2021/09/02 10:38:01;;;;;;;;;;;19.40;84.40;;;17.35;84.55;101635.94;5040395;28;19998;-66
2021/09/02 10:40:47;;;;;;;;;;;19.40;84.10;;;17.36;85.12;101639.53;5071476;28;19924;-65
2021/09/02 10:43:35;;;;;;;;;;;19.40;84.50;;;17.37;85.01;101631.06;5054773;28;19929;-66
2021/09/02 10:46:02;;;;;;;;;;;19.40;84.20;;;17.38;84.72;101627.28;5030978;28;19933;-66
2021/09/02 10:48:29;;;;;;;;;;;19.40;84.30;;;17.41;84.54;101628.78;5050160;28;19928;-66
2021/09/02 10:50:57;;;;;;;;;;;19.40;84.30;;;17.43;84.53;101623.91;5070927;28;20384;-66
2021/09/02 10:53:25;;;;;;;;;;;19.50;84.20;;;17.46;84.45;101626.28;5016754;28;20335;-66
2021/09/02 10:55:54;;;;;;;;;;;19.50;84.30;;;17.51;84.94;101620.97;5030892;28;19939;-66
2021/09/02 10:58:49;;;;;;;;;;;19.50;84.10;;;17.55;83.83;101611.28;5040934;28;20371;-66
2021/09/02 11:01:29;;;;;;;;;;;19.50;83.60;;;17.63;85.18;101618.53;5051363;28;19992;-66
2021/09/02 11:03:57;;;;;;;;;;;19.60;84.90;;;17.65;85.02;101618.28;5051029;28;19932;-66
2021/09/02 11:06:24;;;;;;;;;;;19.70;84.60;;;17.68;84.52;101626.16;5039273;28;20021;-66
2021/09/02 11:08:51;;;;;;;;;;;19.70;84.10;;;17.67;83.72;101616.19;5026659;28;19974;-66
2021/09/02 11:11:20;;;;;;;;;;;19.80;83.20;;;17.71;83.42;101617.50;5051496;28;20405;-66
2021/09/02 11:13:51;;;;;;;;;;;19.80;82.90;;;17.71;82.34;101614.75;5036495;28;19929;-66
2021/09/02 11:16:20;;;;;;;;;;;19.80;81.80;;;17.74;81.78;101619.81;5031123;28;19929;-66